Pensacola, FL

12:46 AM CST on December 19, 2014 (GMT -0600)
Whiting Fld NAS | Change Station
CLOSE
Current Station
Airport
Location: Whiting Fld NAS,
Elevation: 200 ft
Nearby Weather Stations

Elev 200 ft 30.73 °N, 87.02 °W | Updated 50 minutes ago

Overcast
Overcast
54 °F
Feels Like 54 °F
N
6
Wind Variable Wind from North

Today
High -- | Low -- °F
--% Chance of Precip.
Yesterday
High -- | Low -- °F
Precip. -- in
6:40 AM 4:51 PM
Waning Crescent, 9% visible
Pressure 30.12 in
Visibility 10.0 miles
Clouds Overcast 3100 ft
Dew Point 41 °F
Humidity 62%
Rainfall 0.00 in
Snow Depth Not available.
UV 0 out of 12
Pollen 3.50 out of 12
Air Quality Not available.
Flu Activity Not available.
METAR KNSE 190556Z AUTO 35005KT 10SM OVC031 12/05 A3015 RMK AO2 SLP198 T01220050 10122 20094 401830022 58002

More Conditions Fewer Conditions

Pressure 30.12 in
Visibility 10.0 miles
Clouds Overcast 3100 ft
Dew Point 41 °F
Humidity 62%
Rainfall 0.00 in
Snow Depth Not available.
UV 0 out of 12
Pollen 3.50 out of 12
Air Quality Not available.
Flu Activity Not available.
METAR KNSE 190556Z AUTO 35005KT 10SM OVC031 12/05 A3015 RMK AO2 SLP198 T01220050 10122 20094 401830022 58002

More Conditions Fewer Conditions

10-Day Weather Forecast

Almanac

Astronomy

Dec. 19, 2014 Rise Set
Actual Time
Civil Twilight
Nautical Twilight
Astronomical Twilight
Moon
Length of Visible Light
Length of Day
Tomorrow will be .
, % of the Moon is Illuminated

Today's Extremes

State Highs State Lows

Community

WunderPhotos

Upload Photos

1,778,952 photos uploaded!

WunderBlogs® & News

Nearby

Air Quality

  Air Quality AQ Index Pollutant
Not available.

Snow Depth

Station Depth Elevation

Earthquake Activity

City Distance Mag. Time & Date
Minimum magnitude displayed is 2.5.

Coastal Water Temperatures

Place Temperature

Nearby Weather Stations